createdAt,value
2024-05-09T00:00:35.828Z,12.53
2024-05-09T00:03:07.401Z,12.00
2024-05-09T00:05:34.543Z,11.70
2024-05-09T00:08:01.447Z,16.33
2024-05-09T00:10:35.510Z,12.87
2024-05-09T00:13:04.935Z,14.33
2024-05-09T00:15:33.202Z,16.17
2024-05-09T00:17:59.931Z,16.67
2024-05-09T00:20:35.093Z,14.30
2024-05-09T00:23:07.279Z,15.63
2024-05-09T00:25:34.398Z,15.20
2024-05-09T00:28:01.019Z,18.47
2024-05-09T00:30:33.746Z,14.80
2024-05-09T00:33:03.647Z,13.50
2024-05-09T00:35:31.187Z,17.20
2024-05-09T00:37:57.956Z,15.53
2024-05-09T00:40:35.075Z,16.37
2024-05-09T00:43:06.393Z,21.27
2024-05-09T00:45:34.308Z,17.03
2024-05-09T00:48:07.324Z,17.33
2024-05-09T00:50:37.821Z,18.53
2024-05-09T00:53:06.761Z,17.13
2024-05-09T00:55:35.742Z,15.27
2024-05-09T00:58:04.767Z,16.47
2024-05-09T01:00:38.497Z,19.83
2024-05-09T01:03:08.250Z,19.23
2024-05-09T01:05:35.730Z,18.83
2024-05-09T01:08:03.263Z,14.70
2024-05-09T01:10:34.576Z,16.90
2024-05-09T01:13:11.719Z,15.67
2024-05-09T01:15:38.889Z,17.17
2024-05-09T01:18:15.168Z,14.50
2024-05-09T01:20:44.688Z,15.03
2024-05-09T01:23:14.523Z,15.40
2024-05-09T01:25:42.771Z,14.70
2024-05-09T01:28:09.458Z,16.50
2024-05-09T01:30:37.724Z,16.03
2024-05-09T01:33:07.229Z,21.87
2024-05-09T01:35:35.764Z,19.20
2024-05-09T01:38:02.692Z,20.60
2024-05-09T01:40:37.033Z,18.33
2024-05-09T01:43:06.590Z,22.63
2024-05-09T01:45:33.302Z,18.07
2024-05-09T01:48:00.255Z,18.20
2024-05-09T01:50:36.913Z,17.40
2024-05-09T01:53:07.263Z,18.83
2024-05-09T01:55:33.837Z,19.03
2024-05-09T01:58:00.447Z,21.20
2024-05-09T02:00:37.328Z,19.23
2024-05-09T02:03:10.028Z,16.53
2024-05-09T02:05:37.735Z,19.63
2024-05-09T02:08:05.464Z,20.43
2024-05-09T02:10:33.270Z,21.17
2024-05-09T02:13:00.259Z,18.83
2024-05-09T02:15:26.818Z,19.37
2024-05-09T02:17:53.692Z,22.77
2024-05-09T02:20:30.105Z,20.00
2024-05-09T02:23:04.120Z,21.37
2024-05-09T02:25:31.290Z,19.23
2024-05-09T02:27:57.831Z,22.53
2024-05-09T02:30:31.142Z,20.20
2024-05-09T02:33:05.949Z,22.23
2024-05-09T02:35:32.933Z,22.43
2024-05-09T02:37:59.900Z,22.53
2024-05-09T02:40:35.504Z,22.77
2024-05-09T02:43:05.267Z,23.00
2024-05-09T02:45:32.000Z,22.87
2024-05-09T02:47:58.833Z,24.77
2024-05-09T02:50:33.761Z,23.23
2024-05-09T02:53:05.299Z,25.83
2024-05-09T02:55:32.236Z,30.40
2024-05-09T02:57:58.835Z,25.43
2024-05-09T03:00:34.458Z,28.53
2024-05-09T03:03:07.390Z,24.20
2024-05-09T03:05:34.287Z,27.33
2024-05-09T03:08:01.093Z,24.07
2024-05-09T03:10:29.244Z,23.43
2024-05-09T03:13:15.822Z,26.17
2024-05-09T03:15:43.985Z,25.33
2024-05-09T03:18:11.825Z,24.07
2024-05-09T03:20:39.229Z,23.53
2024-05-09T03:23:08.647Z,28.63
2024-05-09T03:25:36.204Z,27.07
2024-05-09T03:28:02.835Z,26.87
2024-05-09T03:30:38.526Z,27.47
2024-05-09T03:33:17.717Z,24.27
2024-05-09T03:35:46.415Z,25.50
2024-05-09T03:38:13.349Z,25.97
2024-05-09T03:40:47.527Z,26.80
2024-05-09T03:43:14.627Z,29.63
2024-05-09T03:45:42.694Z,32.63
2024-05-09T03:48:09.412Z,25.47
2024-05-09T03:50:37.110Z,27.40
2024-05-09T03:53:04.854Z,25.63
2024-05-09T03:55:31.617Z,25.83
2024-05-09T03:57:58.471Z,28.60
2024-05-09T04:00:31.580Z,23.83
2024-05-09T04:03:06.071Z,27.33
2024-05-09T04:05:34.483Z,28.40
2024-05-09T04:08:01.440Z,25.47
2024-05-09T04:10:33.035Z,25.33
2024-05-09T04:13:01.306Z,25.20
2024-05-09T04:15:27.938Z,22.03
2024-05-09T04:17:54.722Z,24.63
2024-05-09T04:20:32.555Z,24.97
2024-05-09T04:23:10.700Z,25.80
2024-05-09T04:25:37.915Z,25.43
2024-05-09T04:28:05.164Z,26.27
2024-05-09T04:30:38.004Z,23.30
2024-05-09T04:33:09.694Z,23.87
2024-05-09T04:35:38.625Z,22.07
2024-05-09T04:38:05.981Z,24.47
2024-05-09T04:40:35.801Z,22.83
2024-05-09T04:43:07.615Z,21.47
2024-05-09T04:45:34.479Z,21.33
2024-05-09T04:48:01.801Z,20.13
2024-05-09T04:50:36.346Z,20.40
2024-05-09T04:53:06.744Z,19.97
2024-05-09T04:55:34.128Z,18.50
2024-05-09T04:58:01.103Z,19.73
2024-05-09T05:00:35.504Z,19.77
2024-05-09T05:03:07.368Z,18.50
2024-05-09T05:05:40.194Z,18.23
2024-05-09T05:08:13.692Z,18.47
2024-05-09T05:10:41.222Z,18.00
2024-05-09T05:13:18.503Z,15.40
2024-05-09T05:15:50.461Z,13.97
2024-05-09T05:18:17.614Z,14.37
2024-05-09T05:20:44.910Z,15.97
2024-05-09T05:23:13.758Z,13.63
2024-05-09T05:25:41.409Z,15.77
2024-05-09T05:28:08.285Z,14.10
2024-05-09T05:30:37.645Z,13.23
2024-05-09T05:33:06.089Z,15.73
2024-05-09T05:35:33.426Z,18.87
2024-05-09T05:38:00.163Z,16.07
2024-05-09T05:40:33.348Z,13.20
2024-05-09T05:43:08.701Z,13.87
2024-05-09T05:45:35.533Z,17.50
2024-05-09T05:48:04.540Z,16.60
2024-05-09T05:50:35.946Z,15.57
2024-05-09T05:53:06.370Z,20.27
2024-05-09T05:55:33.120Z,23.63
2024-05-09T05:58:00.667Z,28.67
2024-05-09T06:00:37.621Z,27.40
2024-05-09T06:03:06.491Z,26.47
2024-05-09T06:05:33.676Z,29.60
2024-05-09T06:08:00.527Z,30.43
2024-05-09T06:10:37.023Z,29.93
2024-05-09T06:13:06.621Z,32.33
2024-05-09T06:15:33.211Z,30.90
2024-05-09T06:17:59.890Z,29.13
2024-05-09T06:20:34.834Z,29.40
2024-05-09T06:23:04.417Z,31.60
2024-05-09T06:25:31.265Z,30.17
2024-05-09T06:27:57.889Z,33.67
2024-05-09T06:30:30.900Z,29.70
2024-05-09T06:33:05.939Z,31.90
2024-05-09T06:35:33.652Z,30.10
2024-05-09T06:38:00.918Z,29.63
2024-05-09T06:40:38.161Z,32.90
2024-05-09T06:43:18.253Z,28.83
2024-05-09T06:45:49.923Z,35.43
2024-05-09T06:48:20.956Z,32.57
2024-05-09T06:50:48.511Z,31.33
2024-05-09T06:53:15.952Z,40.10
2024-05-09T06:55:42.772Z,34.07
2024-05-09T06:58:09.631Z,31.33
2024-05-09T07:00:39.770Z,34.87
2024-05-09T07:03:16.886Z,29.23
2024-05-09T07:05:46.959Z,31.83
2024-05-09T07:08:14.625Z,33.33
2024-05-09T07:10:41.575Z,33.33
2024-05-09T07:13:09.837Z,30.93
2024-05-09T07:15:36.576Z,31.83
2024-05-09T07:18:17.987Z,30.80
2024-05-09T07:20:46.445Z,34.30
2024-05-09T07:23:13.481Z,32.23
2024-05-09T07:25:40.992Z,35.03
2024-05-09T07:28:15.666Z,30.70
2024-05-09T07:30:43.402Z,31.93
2024-05-09T07:33:10.803Z,28.73
2024-05-09T07:35:37.662Z,31.27
2024-05-09T07:38:04.621Z,28.27
2024-05-09T07:40:35.981Z,28.97
2024-05-09T07:43:13.147Z,27.87
2024-05-09T07:45:49.398Z,25.20
2024-05-09T07:52:37.998Z,29.73
2024-05-09T07:53:46.184Z,28.33
2024-05-09T07:56:16.648Z,29.00
2024-05-09T07:58:43.988Z,30.53
2024-05-09T08:01:10.753Z,31.50
2024-05-09T08:03:38.295Z,27.30
2024-05-09T08:06:05.332Z,29.27
2024-05-09T08:08:31.913Z,29.30
2024-05-09T08:10:58.457Z,28.30
2024-05-09T08:13:24.977Z,31.53
2024-05-09T08:15:52.466Z,30.77
2024-05-09T08:18:19.259Z,28.80
2024-05-09T08:20:48.826Z,28.43
2024-05-09T08:23:15.559Z,30.40
2024-05-09T08:25:42.089Z,29.30
2024-05-09T08:28:08.789Z,28.27
2024-05-09T08:30:37.429Z,30.77
2024-05-09T08:33:06.610Z,28.30
2024-05-09T08:35:34.850Z,26.63
2024-05-09T08:38:06.649Z,29.97
2024-05-09T08:40:36.388Z,32.53
2024-05-09T08:43:12.523Z,35.23
2024-05-09T08:45:43.663Z,37.27
2024-05-09T08:48:12.888Z,26.97
2024-05-09T08:50:43.086Z,37.23
2024-05-09T08:53:10.067Z,28.30
2024-05-09T08:55:40.764Z,34.80
2024-05-09T08:58:14.992Z,35.23
2024-05-09T09:00:43.603Z,33.37
2024-05-09T09:03:15.464Z,35.40
2024-05-09T09:05:52.996Z,27.67
2024-05-09T09:08:20.414Z,30.53
2024-05-09T09:10:47.789Z,23.73
2024-05-09T09:13:14.656Z,26.67
2024-05-09T09:15:49.089Z,21.40
2024-05-09T09:18:16.806Z,23.97
2024-05-09T09:20:44.453Z,23.63
2024-05-09T09:23:11.212Z,22.10
2024-05-09T09:25:41.062Z,19.03
2024-05-09T09:28:08.496Z,20.87
2024-05-09T09:30:38.399Z,18.23
2024-05-09T09:33:06.325Z,23.10
2024-05-09T09:35:34.412Z,21.00
2024-05-09T09:38:02.809Z,17.77
2024-05-09T09:40:36.230Z,16.70
2024-05-09T09:43:14.274Z,16.10
2024-05-09T09:45:43.412Z,19.07
2024-05-09T09:48:10.837Z,16.00
2024-05-09T09:50:38.927Z,17.20
2024-05-09T09:53:07.895Z,19.83
2024-05-09T09:55:35.138Z,14.83
2024-05-09T09:58:04.260Z,22.23
2024-05-09T10:00:33.494Z,17.97
2024-05-09T10:03:01.970Z,19.40
2024-05-09T10:05:30.032Z,15.37
2024-05-09T10:07:58.412Z,17.70
2024-05-09T10:10:32.125Z,16.67
2024-05-09T10:13:06.925Z,16.37
2024-05-09T10:15:48.268Z,17.27
2024-05-09T10:18:15.548Z,15.37
2024-05-09T10:20:43.614Z,16.87
2024-05-09T10:23:27.147Z,15.77
2024-05-09T10:26:05.200Z,14.33
2024-05-09T10:28:34.235Z,12.27
2024-05-09T10:31:13.154Z,13.27
2024-05-09T10:33:50.247Z,14.17
2024-05-09T10:36:25.163Z,17.77
2024-05-09T10:38:53.580Z,14.60
2024-05-09T10:41:21.709Z,13.70
2024-05-09T10:43:49.375Z,14.07
2024-05-09T10:46:16.937Z,10.60
2024-05-09T10:48:44.612Z,12.60
2024-05-09T10:51:12.062Z,17.80
2024-05-09T10:53:42.349Z,16.87
2024-05-09T10:56:09.310Z,15.13
2024-05-09T10:58:36.380Z,16.37
2024-05-09T11:01:06.583Z,22.57
2024-05-09T11:03:34.520Z,18.07
2024-05-09T11:06:01.732Z,16.40
2024-05-09T11:08:29.342Z,17.30
2024-05-09T11:10:56.491Z,17.10
2024-05-09T11:13:27.989Z,19.27
2024-05-09T11:15:54.975Z,14.63
2024-05-09T11:18:26.202Z,17.00
2024-05-09T11:20:55.588Z,17.37
2024-05-09T11:23:23.833Z,14.30
2024-05-09T11:25:56.668Z,15.87
2024-05-09T11:28:23.824Z,16.33
2024-05-09T11:30:51.611Z,18.70
2024-05-09T11:33:19.553Z,17.23
2024-05-09T11:35:47.104Z,15.10
2024-05-09T11:38:14.027Z,15.47
2024-05-09T11:40:40.839Z,15.63
2024-05-09T11:43:07.602Z,15.67
2024-05-09T11:45:34.382Z,15.40
2024-05-09T11:48:01.500Z,17.33
2024-05-09T11:50:33.043Z,15.47
2024-05-09T11:53:02.741Z,17.90
2024-05-09T11:55:29.537Z,17.70
2024-05-09T11:58:05.892Z,16.97
2024-05-09T12:00:36.919Z,16.67
2024-05-09T12:03:05.827Z,17.20
2024-05-09T12:05:33.304Z,18.57
2024-05-09T12:08:01.315Z,17.97
2024-05-09T12:10:33.317Z,15.33
2024-05-09T12:13:02.823Z,15.67
2024-05-09T12:15:30.212Z,13.60
2024-05-09T12:17:59.100Z,17.57
2024-05-09T12:20:35.626Z,18.33
2024-05-09T12:23:05.635Z,13.63
2024-05-09T12:25:32.311Z,16.13
2024-05-09T12:27:59.361Z,13.77
2024-05-09T12:30:35.339Z,17.27
2024-05-09T12:33:06.172Z,12.50
2024-05-09T12:35:33.115Z,11.43
2024-05-09T12:38:00.124Z,15.47
2024-05-09T12:40:35.146Z,13.60
2024-05-09T12:43:05.346Z,10.07
2024-05-09T12:45:32.303Z,10.97
2024-05-09T12:47:59.396Z,13.87
2024-05-09T12:50:32.304Z,11.63
2024-05-09T12:53:01.097Z,10.50
2024-05-09T12:55:28.423Z,11.17
2024-05-09T12:57:59.746Z,11.97
2024-05-09T13:00:31.648Z,11.03
2024-05-09T13:03:01.031Z,13.60
2024-05-09T13:05:28.498Z,11.50
2024-05-09T13:07:56.856Z,11.40
2024-05-09T13:10:31.171Z,10.40
2024-05-09T13:13:00.892Z,9.30
2024-05-09T13:15:28.547Z,10.97
2024-05-09T13:17:58.130Z,10.67
2024-05-09T13:20:32.419Z,12.50
2024-05-09T13:23:02.609Z,12.27
2024-05-09T13:25:29.612Z,9.73
2024-05-09T13:27:57.588Z,9.27
2024-05-09T13:32:54.796Z,8.73
2024-05-09T13:35:24.745Z,9.90
2024-05-09T13:37:51.674Z,11.00
2024-05-09T13:40:27.161Z,11.00
2024-05-09T13:42:59.676Z,12.07
2024-05-09T13:45:26.712Z,8.40
2024-05-09T13:47:54.404Z,10.47
2024-05-09T13:50:30.904Z,12.67
2024-05-09T13:53:06.820Z,12.67
2024-05-09T13:56:09.895Z,9.00
2024-05-09T13:58:37.107Z,8.33
2024-05-09T14:01:07.492Z,11.40
2024-05-09T14:03:38.683Z,9.93
2024-05-09T14:06:15.564Z,9.87
2024-05-09T14:08:45.319Z,8.50
2024-05-09T14:11:12.044Z,10.33
2024-05-09T14:13:38.820Z,8.43
2024-05-09T14:16:06.291Z,11.67
2024-05-09T14:18:33.725Z,8.93
2024-05-09T14:21:00.482Z,12.67
2024-05-09T14:23:47.494Z,9.03
2024-05-09T14:26:14.331Z,8.73
2024-05-09T14:28:40.959Z,10.33
2024-05-09T14:31:15.860Z,11.63
2024-05-09T14:36:50.711Z,8.27
2024-05-09T14:39:17.711Z,9.30
2024-05-09T14:41:44.424Z,7.43
2024-05-09T14:44:12.831Z,9.03
2024-05-09T14:46:40.113Z,9.63
2024-05-09T14:49:08.579Z,8.20
2024-05-09T14:51:36.916Z,7.10
2024-05-09T14:54:03.821Z,8.67
2024-05-09T14:56:30.519Z,11.00
2024-05-09T14:58:57.339Z,8.37
2024-05-09T15:01:25.003Z,11.97
2024-05-09T15:03:54.199Z,11.57
2024-05-09T15:06:21.038Z,10.10
2024-05-09T15:08:55.034Z,7.77
2024-05-09T15:11:22.099Z,9.27
2024-05-09T15:13:52.068Z,11.87
2024-05-09T15:16:24.521Z,7.27
2024-05-09T15:18:53.823Z,11.27
2024-05-09T15:21:35.094Z,12.70
2024-05-09T15:24:05.494Z,10.07
2024-05-09T15:26:32.341Z,9.63
2024-05-09T15:28:59.740Z,8.90
2024-05-09T15:31:27.889Z,9.70
2024-05-09T15:34:05.652Z,7.10
2024-05-09T15:36:32.622Z,10.30
2024-05-09T15:39:01.343Z,10.93
2024-05-09T15:41:29.062Z,8.57
2024-05-09T15:43:56.035Z,14.40
2024-05-09T15:46:27.841Z,7.10
2024-05-09T15:49:05.818Z,8.40
2024-05-09T15:51:35.922Z,10.93
2024-05-09T15:54:02.841Z,9.13
2024-05-09T15:56:30.393Z,9.83
2024-05-09T15:58:58.931Z,9.43
2024-05-09T16:01:25.661Z,10.00
2024-05-09T16:03:52.483Z,9.80
2024-05-09T16:06:19.561Z,6.23
2024-05-09T16:08:46.891Z,9.60
2024-05-09T16:11:24.609Z,7.53
2024-05-09T16:13:51.314Z,12.10
2024-05-09T16:16:18.480Z,8.40
2024-05-09T16:18:45.530Z,9.33
2024-05-09T16:21:12.479Z,8.03
2024-05-09T16:23:40.519Z,8.30
2024-05-09T16:26:07.836Z,8.53
2024-05-09T16:28:34.570Z,8.70
2024-05-09T16:31:04.271Z,8.77
2024-05-09T16:33:31.433Z,10.63
2024-05-09T16:35:58.303Z,11.53
2024-05-09T16:38:25.115Z,9.10
2024-05-09T16:40:51.968Z,16.03
2024-05-09T16:43:19.351Z,10.03
2024-05-09T16:45:46.292Z,9.67
2024-05-09T16:48:14.377Z,10.33
2024-05-09T16:50:41.169Z,11.23
2024-05-09T16:53:08.689Z,11.83
2024-05-09T16:55:36.376Z,16.53
2024-05-09T16:58:04.152Z,9.40
2024-05-09T17:00:40.949Z,11.70
2024-05-09T17:03:13.773Z,12.23
2024-05-09T17:05:42.434Z,14.33
2024-05-09T17:08:09.397Z,13.53
2024-05-09T17:10:36.682Z,12.87
2024-05-09T17:13:06.258Z,12.20
2024-05-09T17:15:34.355Z,13.23
2024-05-09T17:18:01.632Z,12.23
2024-05-09T17:20:33.290Z,13.10
2024-05-09T17:23:03.758Z,16.10
2024-05-09T17:25:31.780Z,13.40
2024-05-09T17:28:05.336Z,13.17
2024-05-09T17:30:36.344Z,14.80
2024-05-09T17:33:06.515Z,13.60
2024-05-09T17:35:33.455Z,10.77
2024-05-09T17:38:01.694Z,18.67
2024-05-09T17:40:33.550Z,11.40
2024-05-09T17:43:03.364Z,15.90
2024-05-09T17:45:31.194Z,13.90
2024-05-09T17:47:58.336Z,13.07
2024-05-09T17:50:31.607Z,16.57
2024-05-09T17:53:02.400Z,14.20
2024-05-09T17:55:29.739Z,14.47
2024-05-09T17:57:58.619Z,12.23
2024-05-09T18:00:36.430Z,11.60
2024-05-09T18:03:07.295Z,12.93
2024-05-09T18:05:35.945Z,17.07
2024-05-09T18:08:03.600Z,14.50
2024-05-09T18:10:36.137Z,15.00
2024-05-09T18:13:06.338Z,11.07
2024-05-09T18:15:33.808Z,11.27
2024-05-09T18:18:02.396Z,12.53
2024-05-09T18:20:38.016Z,13.77
2024-05-09T18:23:10.878Z,12.47
2024-05-09T18:25:38.315Z,13.80
2024-05-09T18:28:06.327Z,13.87
2024-05-09T18:30:36.312Z,13.80
2024-05-09T18:33:11.957Z,11.03
2024-05-09T18:35:41.123Z,13.07
2024-05-09T18:38:29.693Z,17.33
2024-05-09T18:40:56.387Z,14.60
2024-05-09T18:43:28.934Z,12.90
2024-05-09T18:46:09.332Z,17.63
2024-05-09T18:48:36.135Z,11.60
2024-05-09T18:51:03.459Z,13.10
2024-05-09T18:53:30.121Z,12.40
2024-05-09T18:55:57.547Z,14.17
2024-05-09T18:58:24.172Z,12.47
2024-05-09T19:00:53.282Z,16.33
2024-05-09T19:03:22.309Z,15.33
2024-05-09T19:05:49.538Z,19.30
2024-05-09T19:08:16.967Z,18.40
2024-05-09T19:10:45.670Z,14.70
2024-05-09T19:13:14.055Z,15.80
2024-05-09T19:15:42.564Z,16.83
2024-05-09T19:18:11.807Z,17.37
2024-05-09T19:20:39.097Z,13.90
2024-05-09T19:23:06.936Z,19.30
2024-05-09T19:25:34.478Z,14.90
2024-05-09T19:28:01.750Z,15.17
2024-05-09T19:30:37.929Z,19.07
2024-05-09T19:33:08.916Z,16.67
2024-05-09T19:35:36.035Z,17.17
2024-05-09T19:38:02.690Z,18.17
2024-05-09T19:40:32.346Z,19.13
2024-05-09T19:43:02.561Z,19.77
2024-05-09T19:45:30.006Z,20.43
2024-05-09T19:47:57.069Z,21.53
2024-05-09T19:50:32.342Z,19.77
2024-05-09T19:53:07.078Z,20.63
2024-05-09T19:55:34.080Z,22.57
2024-05-09T19:58:04.764Z,19.03
2024-05-09T20:00:39.043Z,20.00
2024-05-09T20:03:08.500Z,21.70
2024-05-09T20:05:36.299Z,22.53
2024-05-09T20:08:03.671Z,21.90
2024-05-09T20:10:33.070Z,18.93
2024-05-09T20:13:02.460Z,21.97
2024-05-09T20:15:29.578Z,21.53
2024-05-09T20:17:57.088Z,21.80
2024-05-09T20:20:32.809Z,21.70
2024-05-09T20:23:05.544Z,21.47
2024-05-09T20:25:32.054Z,20.33
2024-05-09T20:27:58.790Z,23.07
2024-05-09T20:30:31.548Z,22.23
2024-05-09T20:33:01.661Z,22.83
2024-05-09T20:35:31.603Z,23.97
2024-05-09T20:37:58.919Z,21.67
2024-05-09T20:40:31.641Z,22.23
2024-05-09T20:43:01.943Z,23.37
2024-05-09T20:45:28.675Z,23.60
2024-05-09T20:47:56.275Z,21.43
2024-05-09T20:50:32.049Z,20.63
2024-05-09T20:53:05.083Z,18.53
2024-05-09T20:55:31.815Z,20.40
2024-05-09T20:57:58.695Z,18.27
2024-05-09T21:00:34.623Z,19.07
2024-05-09T21:03:07.030Z,19.90
2024-05-09T21:05:34.658Z,19.43
2024-05-09T21:08:01.747Z,19.23
2024-05-09T21:10:32.708Z,20.60
2024-05-09T21:13:00.934Z,18.93
2024-05-09T21:15:27.707Z,20.20
2024-05-09T21:17:54.414Z,19.53
2024-05-09T21:20:28.112Z,17.67
2024-05-09T21:22:57.731Z,22.77
2024-05-09T21:25:24.406Z,20.20
2024-05-09T21:27:51.331Z,21.47
2024-05-09T21:30:26.839Z,22.00
2024-05-09T21:32:59.903Z,20.53
2024-05-09T21:35:26.496Z,18.83
2024-05-09T21:37:53.101Z,20.17
2024-05-09T21:40:27.251Z,19.57
2024-05-09T21:43:00.786Z,24.73
2024-05-09T21:45:27.575Z,19.47
2024-05-09T21:47:54.289Z,22.90
2024-05-09T21:50:27.632Z,19.83
2024-05-09T21:52:58.882Z,18.20
2024-05-09T21:55:25.741Z,20.97
2024-05-09T21:57:52.387Z,20.30
2024-05-09T22:00:28.726Z,20.03
2024-05-09T22:03:02.149Z,18.73
2024-05-09T22:05:29.148Z,18.83
2024-05-09T22:07:55.939Z,21.57
2024-05-09T22:10:26.963Z,22.47
2024-05-09T22:12:59.758Z,18.40
2024-05-09T22:15:26.384Z,19.50
2024-05-09T22:17:53.684Z,17.53
2024-05-09T22:20:28.729Z,16.20
2024-05-09T22:23:02.251Z,15.50
2024-05-09T22:25:30.714Z,16.63
2024-05-09T22:27:58.046Z,16.57
2024-05-09T22:30:33.159Z,16.43
2024-05-09T22:33:03.784Z,14.63
2024-05-09T22:35:30.416Z,14.57
2024-05-09T22:37:56.955Z,15.70
2024-05-09T22:40:32.257Z,14.47
2024-05-09T22:43:06.103Z,18.13
2024-05-09T22:45:32.917Z,15.43
2024-05-09T22:47:59.833Z,16.67
2024-05-09T22:50:30.610Z,15.40
2024-05-09T22:52:59.286Z,15.97
2024-05-09T22:55:25.868Z,13.90
2024-05-09T22:57:52.418Z,14.70
2024-05-09T23:00:26.177Z,17.03
2024-05-09T23:02:57.710Z,16.87
2024-05-09T23:05:24.377Z,17.33
2024-05-09T23:07:51.297Z,16.10
2024-05-09T23:10:25.170Z,13.47
2024-05-09T23:12:58.636Z,17.70
2024-05-09T23:15:25.288Z,16.87
2024-05-09T23:17:52.045Z,14.97
2024-05-09T23:20:29.646Z,15.43
2024-05-09T23:23:03.260Z,15.87
2024-05-09T23:25:29.831Z,16.67
2024-05-09T23:27:56.626Z,17.47
2024-05-09T23:30:33.111Z,16.17
2024-05-09T23:33:04.775Z,16.80
2024-05-09T23:35:31.566Z,16.43
2024-05-09T23:37:58.165Z,21.30
2024-05-09T23:40:36.339Z,20.33
2024-05-09T23:43:06.533Z,19.73
2024-05-09T23:45:33.274Z,20.50
2024-05-09T23:48:00.162Z,21.17
2024-05-09T23:50:33.911Z,20.27
2024-05-09T23:53:03.639Z,17.57
2024-05-09T23:55:31.563Z,17.07
2024-05-09T23:57:58.548Z,19.47
